createdAt,value
2022-08-28T00:02:17.974Z,22.74
2022-08-28T00:04:51.063Z,22.77
2022-08-28T00:07:25.781Z,22.79
2022-08-28T00:09:59.064Z,22.82
2022-08-28T00:12:32.147Z,22.85
2022-08-28T00:15:12.964Z,22.91
2022-08-28T00:17:47.232Z,22.95
2022-08-28T00:20:22.292Z,23.04
2022-08-28T00:22:55.982Z,23.10
2022-08-28T00:25:31.343Z,23.18
2022-08-28T00:28:09.219Z,23.21
2022-08-28T00:30:47.842Z,23.25
2022-08-28T00:33:33.368Z,23.27
2022-08-28T00:36:05.599Z,23.28
2022-08-28T00:38:38.572Z,23.29
2022-08-28T00:41:13.437Z,23.28
2022-08-28T00:43:50.690Z,23.28
2022-08-28T00:46:25.196Z,23.27
2022-08-28T00:48:58.068Z,23.29
2022-08-28T00:51:48.617Z,23.29
2022-08-28T00:54:22.424Z,23.29
2022-08-28T00:56:56.957Z,23.31
2022-08-28T00:59:29.850Z,23.33
2022-08-28T01:02:03.778Z,23.33
2022-08-28T01:04:37.549Z,23.31
2022-08-28T01:07:14.642Z,23.30
2022-08-28T01:09:50.279Z,23.27
2022-08-28T01:12:29.748Z,23.25
2022-08-28T01:15:08.225Z,23.23
2022-08-28T01:17:44.068Z,23.23
2022-08-28T01:20:23.969Z,23.22
2022-08-28T01:23:04.873Z,23.21
2022-08-28T01:25:39.630Z,23.21
2022-08-28T01:28:15.329Z,23.19
2022-08-28T01:30:50.293Z,23.18
2022-08-28T01:33:27.852Z,23.17
2022-08-28T01:35:59.574Z,23.15
2022-08-28T01:38:33.038Z,23.15
2022-08-28T01:41:06.169Z,23.13
2022-08-28T01:43:41.416Z,23.12
2022-08-28T01:46:14.473Z,23.12
2022-08-28T01:48:47.403Z,23.13
2022-08-28T01:51:24.482Z,23.15
2022-08-28T01:53:55.022Z,23.17
2022-08-28T01:56:27.907Z,23.20
2022-08-28T01:59:05.652Z,23.20
2022-08-28T02:01:40.571Z,23.20
2022-08-28T02:04:14.544Z,23.23
2022-08-28T02:06:48.674Z,23.22
2022-08-28T02:09:21.545Z,23.22
2022-08-28T02:11:55.334Z,23.22
2022-08-28T02:14:28.197Z,23.22
2022-08-28T02:17:01.586Z,23.23
2022-08-28T02:19:34.553Z,23.20
2022-08-28T02:22:09.031Z,23.19
2022-08-28T02:24:42.286Z,23.18
2022-08-28T02:27:15.054Z,23.17
2022-08-28T02:29:48.741Z,23.14
2022-08-28T02:32:21.633Z,23.09
2022-08-28T02:34:55.822Z,23.03
2022-08-28T02:37:28.025Z,22.97
2022-08-28T02:40:01.412Z,22.95
2022-08-28T02:42:35.021Z,22.91
2022-08-28T02:45:11.005Z,22.84
2022-08-28T02:47:47.293Z,22.80
2022-08-28T02:50:22.309Z,22.76
2022-08-28T02:52:56.003Z,22.73
2022-08-28T02:55:33.587Z,22.70
2022-08-28T02:58:03.654Z,22.68
2022-08-28T03:00:36.870Z,22.67
2022-08-28T03:03:09.794Z,22.66
2022-08-28T03:05:43.176Z,22.63
2022-08-28T03:08:16.077Z,22.60
2022-08-28T03:10:48.881Z,22.57
2022-08-28T03:13:27.041Z,22.57
2022-08-28T03:15:58.907Z,22.57
2022-08-28T03:18:33.444Z,22.57
2022-08-28T03:21:06.922Z,22.57
2022-08-28T03:23:40.490Z,22.57
2022-08-28T03:26:20.187Z,22.56
2022-08-28T03:28:56.825Z,22.54
2022-08-28T03:31:33.840Z,22.54
2022-08-28T03:34:07.319Z,22.56
2022-08-28T03:36:40.317Z,22.57
2022-08-28T03:39:14.239Z,22.58
2022-08-28T03:41:47.104Z,22.59
2022-08-28T03:44:20.262Z,22.59
2022-08-28T03:46:53.363Z,22.62
2022-08-28T03:49:26.186Z,22.65
2022-08-28T03:52:00.542Z,22.68
2022-08-28T03:54:33.809Z,22.75
2022-08-28T03:57:07.125Z,22.81
2022-08-28T03:59:40.701Z,22.89
2022-08-28T04:02:13.420Z,22.94
2022-08-28T04:04:47.655Z,22.99
2022-08-28T04:07:22.913Z,23.01
2022-08-28T04:09:56.049Z,23.03
2022-08-28T04:12:30.310Z,23.08
2022-08-28T04:15:06.785Z,23.08
2022-08-28T04:17:41.899Z,23.19
2022-08-28T04:20:14.708Z,23.26
2022-08-28T04:22:48.488Z,23.32
2022-08-28T04:25:24.063Z,23.44
2022-08-28T04:27:58.153Z,23.44
2022-08-28T04:30:31.059Z,23.55
2022-08-28T04:33:03.883Z,23.55
2022-08-28T04:35:37.158Z,23.62
2022-08-28T04:38:09.974Z,23.69
2022-08-28T04:40:44.034Z,23.74
2022-08-28T04:43:16.945Z,23.81
2022-08-28T04:45:51.028Z,23.87
2022-08-28T04:48:23.866Z,23.92
2022-08-28T04:50:56.723Z,23.98
2022-08-28T04:53:29.816Z,24.03
2022-08-28T04:56:09.746Z,24.10
2022-08-28T04:58:44.847Z,24.17
2022-08-28T05:01:24.812Z,24.24
2022-08-28T05:04:01.104Z,24.30
2022-08-28T05:06:34.998Z,24.34
2022-08-28T05:09:07.065Z,24.44
2022-08-28T05:11:39.857Z,24.50
2022-08-28T05:14:16.215Z,24.56
2022-08-28T05:16:53.257Z,24.65
2022-08-28T05:19:28.293Z,24.72
2022-08-28T05:22:01.708Z,24.80
2022-08-28T05:24:35.055Z,24.86
2022-08-28T05:27:10.428Z,24.93
2022-08-28T05:29:43.354Z,25.02
2022-08-28T05:32:16.190Z,25.13
2022-08-28T05:34:49.202Z,25.21
2022-08-28T05:37:22.085Z,25.32
2022-08-28T05:39:55.157Z,25.41
2022-08-28T05:42:31.348Z,25.54
2022-08-28T05:45:03.546Z,25.67
2022-08-28T05:47:38.686Z,25.81
2022-08-28T05:50:13.805Z,25.91
2022-08-28T05:52:47.661Z,26.02
2022-08-28T05:55:19.600Z,26.12
2022-08-28T05:57:52.251Z,26.21
2022-08-28T06:00:25.042Z,26.29
2022-08-28T06:02:59.123Z,26.39
2022-08-28T06:05:32.071Z,26.48
2022-08-28T06:08:05.074Z,26.56
2022-08-28T06:10:46.889Z,26.65
2022-08-28T06:13:21.288Z,26.74
2022-08-28T06:15:54.241Z,26.83
2022-08-28T06:18:28.494Z,26.93
2022-08-28T06:21:06.282Z,26.99
2022-08-28T06:23:39.471Z,27.06
2022-08-28T06:26:12.986Z,27.13
2022-08-28T06:28:45.503Z,27.19
2022-08-28T06:31:24.567Z,27.25
2022-08-28T06:33:56.566Z,27.33
2022-08-28T06:36:32.212Z,27.36
2022-08-28T06:39:07.350Z,27.39
2022-08-28T06:41:43.033Z,27.38
2022-08-28T06:44:20.191Z,27.40
2022-08-28T06:46:55.094Z,27.39
2022-08-28T06:49:28.374Z,27.40
2022-08-28T06:52:01.353Z,27.46
2022-08-28T06:54:34.913Z,27.48
2022-08-28T06:57:07.930Z,27.53
2022-08-28T06:59:41.094Z,27.55
2022-08-28T07:02:13.985Z,27.56
2022-08-28T07:04:47.297Z,27.59
2022-08-28T07:07:32.547Z,27.62
2022-08-28T07:09:55.527Z,27.67
2022-08-28T07:12:28.564Z,27.72
2022-08-28T07:15:03.454Z,27.79
2022-08-28T07:17:36.680Z,27.85
2022-08-28T07:20:11.903Z,27.88
2022-08-28T07:22:45.081Z,27.91
2022-08-28T07:25:18.338Z,27.91
2022-08-28T07:27:52.458Z,27.92
2022-08-28T07:30:25.441Z,27.92
2022-08-28T07:32:58.363Z,27.92
2022-08-28T07:35:31.708Z,27.94
2022-08-28T07:38:04.614Z,27.96
2022-08-28T07:40:39.013Z,27.97
2022-08-28T07:43:29.702Z,28.05
2022-08-28T07:46:11.860Z,28.12
2022-08-28T07:48:46.594Z,28.19
2022-08-28T07:51:20.010Z,28.22
2022-08-28T07:53:53.818Z,28.28
2022-08-28T07:56:30.010Z,28.34
2022-08-28T07:59:03.906Z,28.38
2022-08-28T08:01:43.557Z,28.42
2022-08-28T08:04:18.388Z,28.48
2022-08-28T08:06:57.987Z,28.54
2022-08-28T08:09:29.474Z,28.60
2022-08-28T08:12:02.835Z,28.65
2022-08-28T08:14:37.093Z,28.71
2022-08-28T08:17:11.350Z,28.74
2022-08-28T08:19:44.548Z,28.81
2022-08-28T08:22:18.739Z,28.87
2022-08-28T08:24:51.649Z,28.93
2022-08-28T08:27:25.018Z,29.01
2022-08-28T08:29:57.878Z,29.07
2022-08-28T08:32:30.814Z,29.13
2022-08-28T08:35:03.801Z,29.20
2022-08-28T08:37:37.241Z,29.27
2022-08-28T08:40:14.657Z,29.33
2022-08-28T08:42:51.365Z,29.38
2022-08-28T08:45:26.462Z,29.44
2022-08-28T08:48:00.051Z,29.52
2022-08-28T08:50:36.818Z,29.58
2022-08-28T08:53:26.687Z,29.65
2022-08-28T08:56:00.473Z,29.70
2022-08-28T08:58:48.219Z,29.75
2022-08-28T09:01:51.119Z,29.80
2022-08-28T09:04:30.183Z,29.85
2022-08-28T09:07:07.705Z,29.92
2022-08-28T09:09:50.976Z,29.97
2022-08-28T09:12:34.472Z,30.01
2022-08-28T09:15:30.654Z,30.08
2022-08-28T09:18:26.220Z,30.16
2022-08-28T09:21:00.796Z,30.21
2022-08-28T09:23:34.125Z,30.30
2022-08-28T09:26:10.224Z,30.37
2022-08-28T09:28:47.164Z,30.42
2022-08-28T09:31:27.070Z,30.45
2022-08-28T09:34:23.995Z,30.49
2022-08-28T09:36:59.810Z,30.55
2022-08-28T09:39:36.714Z,30.58
2022-08-28T09:42:43.643Z,30.63
2022-08-28T09:45:21.095Z,30.70
2022-08-28T09:48:00.808Z,30.76
2022-08-28T09:50:44.856Z,30.81
2022-08-28T09:53:22.165Z,30.87
2022-08-28T09:56:19.141Z,30.91
2022-08-28T09:58:56.482Z,30.94
2022-08-28T10:01:51.825Z,30.97
2022-08-28T10:04:53.724Z,31.07
2022-08-28T10:07:49.158Z,31.14
2022-08-28T10:10:41.769Z,31.23
2022-08-28T10:13:34.406Z,31.31
2022-08-28T10:16:22.172Z,31.36
2022-08-28T10:19:16.919Z,31.41
2022-08-28T10:22:16.831Z,31.48
2022-08-28T10:25:03.411Z,31.53
2022-08-28T10:27:41.815Z,31.57
2022-08-28T10:30:23.845Z,31.62
2022-08-28T10:33:18.199Z,31.71
2022-08-28T10:36:01.758Z,31.77
2022-08-28T10:38:40.479Z,31.85
2022-08-28T10:41:27.265Z,31.89
2022-08-28T10:44:02.523Z,31.93
2022-08-28T10:46:46.427Z,32.00
2022-08-28T10:49:43.704Z,32.06
2022-08-28T10:52:24.096Z,32.09
2022-08-28T10:55:07.760Z,32.13
2022-08-28T10:57:58.768Z,32.15
2022-08-28T11:00:32.308Z,32.18
2022-08-28T11:03:27.080Z,32.21
2022-08-28T11:06:05.230Z,32.21
2022-08-28T11:08:39.881Z,32.20
2022-08-28T11:11:17.158Z,32.21
2022-08-28T11:13:59.987Z,32.22
2022-08-28T11:16:38.341Z,32.23
2022-08-28T11:19:35.235Z,32.23
2022-08-28T11:22:21.876Z,32.28
2022-08-28T11:25:32.546Z,32.36
2022-08-28T11:28:39.820Z,32.39
2022-08-28T11:31:28.758Z,32.45
2022-08-28T11:33:56.351Z,32.52
2022-08-28T11:36:33.868Z,32.58
2022-08-28T11:39:20.431Z,32.61
2022-08-28T11:42:16.042Z,32.55
2022-08-28T11:44:49.283Z,32.49
2022-08-28T11:47:42.279Z,32.46
2022-08-28T11:50:25.431Z,32.51
2022-08-28T11:53:21.238Z,32.57
2022-08-28T11:56:31.478Z,32.61
2022-08-28T11:59:39.765Z,32.69
2022-08-28T12:02:40.038Z,32.72
2022-08-28T12:05:35.455Z,32.75
2022-08-28T12:08:08.518Z,32.81
2022-08-28T12:10:55.021Z,32.87
2022-08-28T12:13:51.337Z,32.89
2022-08-28T12:16:24.389Z,32.93
2022-08-28T12:19:01.455Z,32.95
2022-08-28T12:21:39.288Z,33.01
2022-08-28T12:24:22.601Z,33.10
2022-08-28T12:26:59.139Z,33.14
2022-08-28T12:29:48.842Z,33.20
2022-08-28T12:32:53.826Z,33.27
2022-08-28T12:35:29.997Z,33.37
2022-08-28T12:38:06.800Z,33.44
2022-08-28T12:40:50.870Z,33.48
2022-08-28T12:43:34.818Z,33.52
2022-08-28T12:46:18.927Z,33.54
2022-08-28T12:48:58.569Z,33.60
2022-08-28T12:51:38.186Z,33.64
2022-08-28T12:54:12.863Z,33.63
2022-08-28T12:56:46.030Z,33.60
2022-08-28T12:59:43.754Z,33.58
2022-08-28T13:02:34.546Z,33.62
2022-08-28T13:05:11.030Z,33.65
2022-08-28T13:07:50.471Z,33.70
2022-08-28T13:10:45.590Z,33.75
2022-08-28T13:13:44.248Z,33.73
2022-08-28T13:16:40.152Z,33.71
2022-08-28T13:19:35.068Z,33.67
2022-08-28T13:22:34.612Z,33.62
2022-08-28T13:25:09.264Z,33.57
2022-08-28T13:27:42.154Z,33.50
2022-08-28T13:30:22.660Z,33.52
2022-08-28T13:33:20.457Z,33.59
2022-08-28T13:35:55.159Z,33.67
2022-08-28T13:38:28.180Z,33.75
2022-08-28T13:41:04.899Z,33.78
2022-08-28T13:43:48.198Z,33.79
2022-08-28T13:46:21.350Z,33.80
2022-08-28T13:48:54.247Z,33.78
2022-08-28T13:51:27.857Z,33.71
2022-08-28T13:54:01.002Z,33.59
2022-08-28T13:56:34.349Z,33.43
2022-08-28T13:59:07.595Z,33.26
2022-08-28T14:01:59.233Z,33.11
2022-08-28T14:04:32.363Z,33.03
2022-08-28T14:07:05.362Z,33.01
2022-08-28T14:09:38.144Z,33.06
2022-08-28T14:12:12.302Z,33.11
2022-08-28T14:14:45.392Z,33.16
2022-08-28T14:17:18.691Z,33.20
2022-08-28T14:19:52.406Z,33.24
2022-08-28T14:22:25.569Z,33.24
2022-08-28T14:24:58.885Z,33.23
2022-08-28T14:27:32.047Z,33.21
2022-08-28T14:30:06.956Z,33.17
2022-08-28T14:32:40.759Z,33.11
2022-08-28T14:35:13.777Z,33.05
2022-08-28T14:37:46.686Z,33.02
2022-08-28T14:40:19.657Z,33.02
2022-08-28T14:42:53.575Z,32.99
2022-08-28T14:45:27.329Z,32.96
2022-08-28T14:48:00.249Z,32.92
2022-08-28T14:50:33.567Z,32.87
2022-08-28T14:53:06.636Z,32.81
2022-08-28T14:55:44.937Z,32.74
2022-08-28T14:58:20.045Z,32.69
2022-08-28T15:00:53.690Z,32.63
2022-08-28T15:03:26.757Z,32.59
2022-08-28T15:06:09.198Z,32.53
2022-08-28T15:08:42.795Z,32.49
2022-08-28T15:11:20.873Z,32.42
2022-08-28T15:13:55.539Z,32.34
2022-08-28T15:16:32.294Z,32.26
2022-08-28T15:19:05.358Z,32.17
2022-08-28T15:21:44.844Z,32.09
2022-08-28T15:24:21.857Z,31.99
2022-08-28T15:26:55.558Z,31.85
2022-08-28T15:29:31.033Z,31.71
2022-08-28T15:32:04.413Z,31.57
2022-08-28T15:34:37.259Z,31.45
2022-08-28T15:37:10.439Z,31.31
2022-08-28T15:40:03.127Z,31.18
2022-08-28T15:42:36.279Z,31.07
2022-08-28T15:45:09.437Z,30.93
2022-08-28T15:47:43.010Z,30.82
2022-08-28T15:50:19.901Z,30.71
2022-08-28T15:52:53.451Z,30.62
2022-08-28T15:55:26.621Z,30.53
2022-08-28T15:57:59.575Z,30.45
2022-08-28T16:00:32.917Z,30.37
2022-08-28T16:03:06.570Z,30.28
2022-08-28T16:05:40.932Z,30.22
2022-08-28T16:08:14.657Z,30.14
2022-08-28T16:10:52.792Z,30.08
2022-08-28T16:13:25.756Z,30.03
2022-08-28T16:15:59.424Z,29.97
2022-08-28T16:18:33.305Z,29.92
2022-08-28T16:21:06.854Z,29.87
2022-08-28T16:23:39.891Z,29.83
2022-08-28T16:26:16.095Z,29.79
2022-08-28T16:28:48.937Z,29.74
2022-08-28T16:31:22.266Z,29.68
2022-08-28T16:33:54.996Z,29.64
2022-08-28T16:36:27.698Z,29.58
2022-08-28T16:39:03.627Z,29.52
2022-08-28T16:41:35.340Z,29.48
2022-08-28T16:44:08.598Z,29.42
2022-08-28T16:46:41.685Z,29.36
2022-08-28T16:49:15.046Z,29.31
2022-08-28T16:51:48.341Z,29.26
2022-08-28T16:54:22.422Z,29.20
2022-08-28T16:56:55.611Z,29.14
2022-08-28T16:59:28.910Z,29.07
2022-08-28T17:02:01.845Z,29.00
2022-08-28T17:04:35.751Z,28.96
2022-08-28T17:07:09.299Z,28.92
2022-08-28T17:09:42.160Z,28.85
2022-08-28T17:12:15.672Z,28.81
2022-08-28T17:14:48.910Z,28.75
2022-08-28T17:17:22.666Z,28.70
2022-08-28T17:19:55.487Z,28.62
2022-08-28T17:22:32.394Z,28.57
2022-08-28T17:25:11.016Z,28.50
2022-08-28T17:27:44.632Z,28.44
2022-08-28T17:30:19.317Z,28.36
2022-08-28T17:32:52.897Z,28.29
2022-08-28T17:35:25.879Z,28.22
2022-08-28T17:37:59.074Z,28.16
2022-08-28T17:40:32.491Z,28.09
2022-08-28T17:43:05.685Z,28.02
2022-08-28T17:45:40.483Z,27.97
2022-08-28T17:48:13.537Z,27.92
2022-08-28T17:50:49.944Z,27.86
2022-08-28T17:53:27.575Z,27.79
2022-08-28T17:55:59.408Z,27.73
2022-08-28T17:58:37.464Z,27.68
2022-08-28T18:01:08.496Z,27.62
2022-08-28T18:03:43.938Z,27.52
2022-08-28T18:06:17.213Z,27.52
2022-08-28T18:08:52.193Z,27.47
2022-08-28T18:11:25.185Z,27.42
2022-08-28T18:14:00.092Z,27.39
2022-08-28T18:16:35.309Z,27.36
2022-08-28T18:19:10.900Z,27.35
2022-08-28T18:21:43.888Z,27.31
2022-08-28T18:24:17.544Z,27.26
2022-08-28T18:26:50.358Z,27.22
2022-08-28T18:29:23.329Z,27.17
2022-08-28T18:31:57.989Z,27.13
2022-08-28T18:34:32.072Z,27.08
2022-08-28T18:37:05.202Z,27.06
2022-08-28T18:39:38.963Z,27.02
2022-08-28T18:42:11.812Z,26.99
2022-08-28T18:44:45.103Z,26.95
2022-08-28T18:47:18.070Z,26.92
2022-08-28T18:49:50.983Z,26.87
2022-08-28T18:52:23.816Z,26.83
2022-08-28T18:54:58.973Z,26.79
2022-08-28T18:57:32.777Z,26.78
2022-08-28T19:00:07.153Z,26.76
2022-08-28T19:02:41.760Z,26.74
2022-08-28T19:05:16.017Z,26.70
2022-08-28T19:07:50.294Z,26.66
2022-08-28T19:10:33.350Z,26.64
2022-08-28T19:12:58.532Z,26.60
2022-08-28T19:15:31.901Z,26.58
2022-08-28T19:18:06.386Z,26.57
2022-08-28T19:20:39.821Z,26.50
2022-08-28T19:23:17.445Z,26.48
2022-08-28T19:25:49.240Z,26.48
2022-08-28T19:28:22.442Z,26.44
2022-08-28T19:30:55.672Z,26.43
2022-08-28T19:33:28.787Z,26.43
2022-08-28T19:36:02.667Z,26.42
2022-08-28T19:38:36.248Z,26.43
2022-08-28T19:41:11.952Z,26.49
2022-08-28T19:43:45.073Z,26.50
2022-08-28T19:46:20.382Z,26.50
2022-08-28T19:48:55.151Z,26.48
2022-08-28T19:51:28.294Z,26.40
2022-08-28T19:54:02.372Z,26.30
2022-08-28T19:56:37.558Z,26.18
2022-08-28T19:59:11.346Z,26.02
2022-08-28T20:01:46.889Z,25.92
2022-08-28T20:04:20.051Z,25.83
2022-08-28T20:06:55.068Z,25.77
2022-08-28T20:09:28.169Z,25.71
2022-08-28T20:12:01.705Z,25.66
2022-08-28T20:14:34.718Z,25.60
2022-08-28T20:17:07.669Z,25.54
2022-08-28T20:19:40.696Z,25.45
2022-08-28T20:22:14.318Z,25.37
2022-08-28T20:24:47.806Z,25.30
2022-08-28T20:27:21.540Z,25.24
2022-08-28T20:29:54.942Z,25.15
2022-08-28T20:32:27.830Z,25.11
2022-08-28T20:35:01.603Z,25.08
2022-08-28T20:37:42.640Z,25.03
2022-08-28T20:40:12.105Z,24.99
2022-08-28T20:42:46.755Z,24.93
2022-08-28T20:45:22.045Z,24.88
2022-08-28T20:47:54.873Z,24.81
2022-08-28T20:50:27.741Z,24.78
2022-08-28T20:53:02.363Z,24.76
2022-08-28T20:55:35.366Z,24.69
2022-08-28T20:58:08.334Z,24.65
2022-08-28T21:00:42.656Z,24.60
2022-08-28T21:03:15.708Z,24.53
2022-08-28T21:05:49.085Z,24.46
2022-08-28T21:08:21.964Z,24.38
2022-08-28T21:10:55.338Z,24.30
2022-08-28T21:13:28.500Z,24.23
2022-08-28T21:16:01.861Z,24.16
2022-08-28T21:18:38.524Z,24.13
2022-08-28T21:21:11.582Z,24.13
2022-08-28T21:23:44.861Z,24.13
2022-08-28T21:26:17.685Z,24.13
2022-08-28T21:28:51.068Z,24.10
2022-08-28T21:31:24.471Z,24.06
2022-08-28T21:33:58.202Z,24.01
2022-08-28T21:36:31.840Z,23.93
2022-08-28T21:39:06.746Z,23.86
2022-08-28T21:41:39.665Z,23.82
2022-08-28T21:44:12.570Z,23.76
2022-08-28T21:46:45.739Z,23.73
2022-08-28T21:49:18.624Z,23.73
2022-08-28T21:51:52.152Z,23.70
2022-08-28T21:54:25.066Z,23.69
2022-08-28T21:56:58.815Z,23.66
2022-08-28T21:59:37.790Z,23.63
2022-08-28T22:02:06.651Z,23.58
2022-08-28T22:04:40.162Z,23.51
2022-08-28T22:07:14.367Z,23.46
2022-08-28T22:09:47.923Z,23.47
2022-08-28T22:12:21.243Z,23.45
2022-08-28T22:14:54.655Z,23.43
2022-08-28T22:17:27.724Z,23.38
2022-08-28T22:20:00.620Z,23.35
2022-08-28T22:22:51.481Z,23.28
2022-08-28T22:25:25.698Z,23.28
2022-08-28T22:27:58.606Z,23.27
2022-08-28T22:30:31.577Z,23.27
2022-08-28T22:33:05.574Z,23.24
2022-08-28T22:35:39.710Z,23.24
2022-08-28T22:38:12.845Z,23.24
2022-08-28T22:40:46.689Z,23.23
2022-08-28T22:43:20.975Z,23.24
2022-08-28T22:45:53.801Z,23.25
2022-08-28T22:48:26.622Z,23.25
2022-08-28T22:51:12.880Z,23.19
2022-08-28T22:53:45.924Z,23.21
2022-08-28T22:56:19.656Z,23.20
2022-08-28T22:58:52.458Z,23.17
2022-08-28T23:01:27.761Z,23.13
2022-08-28T23:04:02.493Z,23.10
2022-08-28T23:06:35.362Z,23.06
2022-08-28T23:09:10.235Z,23.06
2022-08-28T23:11:43.126Z,23.04
2022-08-28T23:14:16.200Z,23.02
2022-08-28T23:16:49.379Z,22.99
2022-08-28T23:19:23.092Z,22.93
2022-08-28T23:21:56.461Z,22.86
2022-08-28T23:24:29.305Z,22.79
2022-08-28T23:27:19.444Z,22.79
2022-08-28T23:29:37.138Z,22.78
2022-08-28T23:32:11.060Z,22.68
2022-08-28T23:34:44.852Z,22.68
2022-08-28T23:37:18.181Z,22.64
2022-08-28T23:39:50.998Z,22.59
2022-08-28T23:42:23.793Z,22.56
2022-08-28T23:45:00.186Z,22.56
2022-08-28T23:47:35.174Z,22.54
2022-08-28T23:50:14.281Z,22.55
2022-08-28T23:52:49.256Z,22.52
2022-08-28T23:55:23.058Z,22.47
2022-08-28T23:57:57.846Z,22.47
